createdAt,value
2023-05-18T00:04:34.262Z,101324.63
2023-05-18T00:09:37.874Z,101315.03
2023-05-18T00:14:40.761Z,101317.47
2023-05-18T00:19:46.595Z,101322.19
2023-05-18T00:24:49.622Z,101326.81
2023-05-18T00:29:52.708Z,101328.81
2023-05-18T00:34:56.873Z,101337.09
2023-05-18T00:39:59.675Z,101333.78
2023-05-18T00:45:03.242Z,101332.00
2023-05-18T00:50:08.677Z,101338.41
2023-05-18T00:55:12.398Z,101346.56
2023-05-18T01:00:15.495Z,101348.59
2023-05-18T01:05:20.158Z,101356.81
2023-05-18T01:10:23.433Z,101364.97
2023-05-18T01:15:30.012Z,101367.88
2023-05-18T01:20:38.134Z,101364.31
2023-05-18T01:25:49.297Z,101369.69
2023-05-18T01:30:53.694Z,101372.59
2023-05-18T01:35:56.593Z,101380.81
2023-05-18T01:41:04.438Z,101381.88
2023-05-18T01:46:12.238Z,101381.22
2023-05-18T01:51:16.218Z,101380.44
2023-05-18T01:56:20.823Z,101377.84
2023-05-18T02:01:25.116Z,101386.09
2023-05-18T02:06:28.095Z,101388.13
2023-05-18T02:11:31.052Z,101382.75
2023-05-18T02:16:35.883Z,101390.00
2023-05-18T02:21:38.960Z,101384.00
2023-05-18T02:26:41.783Z,101379.59
2023-05-18T02:31:46.021Z,101382.25
2023-05-18T02:36:48.886Z,101386.94
2023-05-18T02:41:51.788Z,101379.75
2023-05-18T02:46:56.947Z,101389.81
2023-05-18T02:51:59.750Z,101389.91
2023-05-18T02:57:02.683Z,101389.16
2023-05-18T03:02:18.086Z,101393.66
2023-05-18T03:07:21.281Z,101408.06
2023-05-18T03:12:24.731Z,101406.38
2023-05-18T03:17:29.168Z,101402.06
2023-05-18T03:22:32.200Z,101405.81
2023-05-18T03:27:37.974Z,101401.47
2023-05-18T03:32:42.723Z,101411.34
2023-05-18T03:37:45.661Z,101407.91
2023-05-18T03:42:48.716Z,101409.72
2023-05-18T03:47:53.061Z,101414.34
2023-05-18T03:52:56.002Z,101415.19
2023-05-18T03:58:00.179Z,101419.78
2023-05-18T04:03:04.768Z,101421.63
2023-05-18T04:08:08.847Z,101422.56
2023-05-18T04:13:11.925Z,101429.66
2023-05-18T04:18:16.159Z,101435.78
2023-05-18T04:23:19.986Z,101443.19
2023-05-18T04:28:23.046Z,101447.50
2023-05-18T04:33:27.222Z,101452.00
2023-05-18T04:38:30.181Z,101446.63
2023-05-18T04:43:33.093Z,101447.41
2023-05-18T04:48:37.561Z,101450.94
2023-05-18T04:53:40.599Z,101457.16
2023-05-18T04:58:45.905Z,101459.84
2023-05-18T05:03:50.263Z,101458.91
2023-05-18T05:08:53.315Z,101465.22
2023-05-18T05:13:56.530Z,101462.34
2023-05-18T05:19:00.732Z,101461.41
2023-05-18T05:24:05.806Z,101458.75
2023-05-18T05:29:08.862Z,101463.03
2023-05-18T05:34:13.456Z,101460.25
2023-05-18T05:39:16.703Z,101461.91
2023-05-18T05:44:19.599Z,101469.84
2023-05-18T05:49:24.293Z,101469.69
2023-05-18T05:54:27.380Z,101468.63
2023-05-18T05:59:30.394Z,101463.16
2023-05-18T06:04:35.248Z,101471.91
2023-05-18T06:09:38.262Z,101473.63
2023-05-18T06:14:41.230Z,101467.22
2023-05-18T06:19:46.337Z,101469.81
2023-05-18T06:24:49.462Z,101466.06
2023-05-18T06:30:18.018Z,101472.22
2023-05-18T06:35:43.435Z,101468.47
2023-05-18T06:40:46.343Z,101471.06
2023-05-18T06:45:49.386Z,101476.34
2023-05-18T06:51:05.840Z,101486.00
2023-05-18T06:56:11.726Z,101484.13
2023-05-18T07:01:15.369Z,101492.09
2023-05-18T07:06:19.874Z,101484.91
2023-05-18T07:11:22.991Z,101485.28
2023-05-18T07:16:27.451Z,101489.41
2023-05-18T07:21:32.060Z,101488.38
2023-05-18T07:26:34.950Z,101488.97
2023-05-18T07:31:42.555Z,101490.19
2023-05-18T07:36:48.832Z,101490.72
2023-05-18T07:41:51.759Z,101479.03
2023-05-18T07:46:54.686Z,101479.38
2023-05-18T07:51:59.359Z,101486.22
2023-05-18T07:57:02.300Z,101489.41
2023-05-18T08:02:06.659Z,101489.31
2023-05-18T08:07:12.706Z,101487.16
2023-05-18T08:12:15.847Z,101495.63
2023-05-18T08:17:19.693Z,101491.28
2023-05-18T08:22:23.961Z,101499.06
2023-05-18T08:27:27.012Z,101490.84
2023-05-18T08:32:30.009Z,101483.47
2023-05-18T08:37:34.293Z,101483.28
2023-05-18T08:42:49.353Z,101479.72
2023-05-18T08:47:53.254Z,101488.38
2023-05-18T08:52:57.611Z,101480.84
2023-05-18T08:58:00.675Z,101484.09
2023-05-18T09:03:03.808Z,101487.28
2023-05-18T09:08:08.721Z,101484.28
2023-05-18T09:13:11.814Z,101477.09
2023-05-18T09:18:14.744Z,101463.41
2023-05-18T09:23:19.133Z,101467.53
2023-05-18T09:28:27.349Z,101458.53
2023-05-18T09:33:34.142Z,101462.75
2023-05-18T09:38:43.273Z,101462.44
2023-05-18T09:43:46.880Z,101468.78
2023-05-18T09:48:51.950Z,101468.72
2023-05-18T09:53:56.881Z,101466.03
2023-05-18T09:58:59.876Z,101467.16
2023-05-18T10:04:04.075Z,101462.66
2023-05-18T10:09:15.623Z,101465.81
2023-05-18T10:14:18.535Z,101462.94
2023-05-18T10:19:21.471Z,101451.53
2023-05-18T10:24:25.839Z,101438.75
2023-05-18T10:29:29.441Z,101434.25
2023-05-18T10:34:32.719Z,101433.00
2023-05-18T10:39:38.005Z,101415.47
2023-05-18T10:44:40.924Z,101418.94
2023-05-18T10:49:44.068Z,101429.56
2023-05-18T10:54:48.522Z,101426.31
2023-05-18T10:59:51.443Z,101426.03
2023-05-18T11:04:54.427Z,101412.38
2023-05-18T11:09:58.839Z,101402.59
2023-05-18T11:15:02.009Z,101407.88
2023-05-18T11:20:15.613Z,101409.41
2023-05-18T11:25:44.937Z,101387.59
2023-05-18T11:30:49.879Z,101386.63
2023-05-18T11:36:01.670Z,101388.13
2023-05-18T11:41:08.475Z,101386.47
2023-05-18T11:46:11.686Z,101369.16
2023-05-18T11:51:14.632Z,101374.53
2023-05-18T11:56:18.889Z,101383.19
2023-05-18T12:01:23.655Z,101387.16
2023-05-18T12:06:26.665Z,101378.06
2023-05-18T12:11:31.052Z,101368.50
2023-05-18T12:16:34.440Z,101368.22
2023-05-18T12:21:37.339Z,101377.88
2023-05-18T12:26:42.229Z,101361.56
2023-05-18T12:31:45.137Z,101378.59
2023-05-18T12:36:54.698Z,101357.84
2023-05-18T12:42:14.493Z,101363.53
2023-05-18T12:47:18.156Z,101358.69
2023-05-18T12:52:22.144Z,101361.69
2023-05-18T12:57:27.000Z,101361.91
2023-05-18T13:02:32.230Z,101350.72
2023-05-18T13:07:37.220Z,101333.81
2023-05-18T13:12:42.523Z,101340.94
2023-05-18T13:17:58.824Z,101336.38
2023-05-18T13:23:03.629Z,101344.69
2023-05-18T13:28:10.462Z,101344.16
2023-05-18T13:33:13.427Z,101345.44
2023-05-18T13:38:16.714Z,101340.69
2023-05-18T13:43:21.008Z,101339.00
2023-05-18T13:48:31.318Z,101328.22
2023-05-18T13:53:40.778Z,101319.06
2023-05-18T13:58:46.131Z,101337.91
2023-05-18T14:03:49.156Z,101328.75
2023-05-18T14:08:52.303Z,101315.41
2023-05-18T14:13:56.833Z,101310.66
2023-05-18T14:18:59.792Z,101314.09
2023-05-18T14:24:05.820Z,101317.44
2023-05-18T14:29:10.477Z,101317.00
2023-05-18T14:34:13.708Z,101325.63
2023-05-18T14:39:16.564Z,101321.75
2023-05-18T14:44:20.762Z,101298.59
2023-05-18T14:49:23.773Z,101295.03
2023-05-18T14:54:26.790Z,101306.00
2023-05-18T14:59:31.089Z,101306.69
2023-05-18T15:04:34.185Z,101308.41
2023-05-18T15:09:37.092Z,101304.53
2023-05-18T15:14:41.279Z,101296.19
2023-05-18T15:19:44.297Z,101299.34
2023-05-18T15:24:47.229Z,101301.19
2023-05-18T15:29:51.443Z,101297.88
2023-05-18T15:34:54.457Z,101289.75
2023-05-18T15:39:57.288Z,101289.88
2023-05-18T15:45:03.096Z,101293.09
2023-05-18T15:50:07.088Z,101292.25
2023-05-18T15:55:10.771Z,101289.31
2023-05-18T16:00:16.342Z,101290.41
2023-05-18T16:05:19.419Z,101286.22
2023-05-18T16:10:23.478Z,101282.00
2023-05-18T16:15:29.107Z,101274.94
2023-05-18T16:20:32.212Z,101264.38
2023-05-18T16:25:35.382Z,101268.53
2023-05-18T16:30:39.594Z,101272.63
2023-05-18T16:35:42.423Z,101277.47
2023-05-18T16:40:45.252Z,101276.84
2023-05-18T16:45:49.428Z,101278.69
2023-05-18T16:50:52.312Z,101271.22
2023-05-18T16:55:55.162Z,101278.69
2023-05-18T17:00:59.633Z,101280.69
2023-05-18T17:06:02.566Z,101272.59
2023-05-18T17:11:05.476Z,101265.34
2023-05-18T17:16:09.942Z,101269.91
2023-05-18T17:21:12.833Z,101270.59
2023-05-18T17:26:15.844Z,101280.34
2023-05-18T17:31:20.215Z,101279.50
2023-05-18T17:36:23.034Z,101280.72
2023-05-18T17:41:39.875Z,101274.66
2023-05-18T17:46:51.324Z,101271.09
2023-05-18T17:52:03.526Z,101282.06
2023-05-18T17:57:12.605Z,101283.16
2023-05-18T18:02:16.866Z,101286.50
2023-05-18T18:07:19.797Z,101287.47
2023-05-18T18:12:23.105Z,101287.78
2023-05-18T18:17:27.372Z,101289.41
2023-05-18T18:22:30.251Z,101284.09
2023-05-18T18:27:33.140Z,101289.50
2023-05-18T18:32:37.459Z,101293.03
2023-05-18T18:37:40.537Z,101295.00
2023-05-18T18:42:43.500Z,101296.81
2023-05-18T18:47:47.694Z,101294.31
2023-05-18T18:52:50.665Z,101294.00
2023-05-18T18:57:53.658Z,101298.03
2023-05-18T19:02:58.024Z,101308.81
2023-05-18T19:08:01.728Z,101311.50
2023-05-18T19:13:06.139Z,101306.00
2023-05-18T19:18:10.457Z,101301.91
2023-05-18T19:23:13.517Z,101311.19
2023-05-18T19:28:16.460Z,101325.63
2023-05-18T19:33:20.689Z,101324.91
2023-05-18T19:38:23.528Z,101328.66
2023-05-18T19:43:26.316Z,101332.31
2023-05-18T19:48:31.403Z,101342.22
2023-05-18T19:53:34.278Z,101343.19
2023-05-18T19:58:37.180Z,101341.38
2023-05-18T20:03:43.552Z,101334.38
2023-05-18T20:08:46.652Z,101332.44
2023-05-18T20:13:49.531Z,101336.84
2023-05-18T20:18:53.755Z,101327.16
2023-05-18T20:23:56.655Z,101337.06
2023-05-18T20:28:59.490Z,101333.41
2023-05-18T20:34:03.956Z,101324.00
2023-05-18T20:39:07.261Z,101341.38
2023-05-18T20:44:10.592Z,101339.53
2023-05-18T20:49:15.413Z,101333.41
2023-05-18T20:54:18.929Z,101335.13
2023-05-18T20:59:22.034Z,101331.47
2023-05-18T21:04:26.207Z,101327.91
2023-05-18T21:09:31.200Z,101322.63
2023-05-18T21:14:34.230Z,101313.69
2023-05-18T21:19:38.471Z,101319.81
2023-05-18T21:24:41.287Z,101327.03
2023-05-18T21:29:44.130Z,101321.66
2023-05-18T21:34:48.307Z,101320.78
2023-05-18T21:39:51.158Z,101317.13
2023-05-18T21:44:54.660Z,101321.66
2023-05-18T21:49:58.815Z,101318.09
2023-05-18T21:55:01.619Z,101326.94
2023-05-18T22:00:07.791Z,101318.00
2023-05-18T22:05:19.215Z,101321.53
2023-05-18T22:10:22.049Z,101319.81
2023-05-18T22:15:24.937Z,101322.63
2023-05-18T22:20:29.519Z,101309.41
2023-05-18T22:25:32.590Z,101314.94
2023-05-18T22:30:35.558Z,101304.53
2023-05-18T22:35:39.810Z,101313.13
2023-05-18T22:40:42.666Z,101309.91
2023-05-18T22:45:45.461Z,101306.78
2023-05-18T22:50:49.648Z,101309.69
2023-05-18T22:55:52.561Z,101308.06
2023-05-18T23:00:56.047Z,101324.44
2023-05-18T23:06:03.804Z,101316.69
2023-05-18T23:11:06.750Z,101315.06
2023-05-18T23:16:10.473Z,101312.72
2023-05-18T23:21:14.871Z,101314.75
2023-05-18T23:26:17.707Z,101314.09
2023-05-18T23:31:21.905Z,101308.91
2023-05-18T23:36:27.341Z,101306.66
2023-05-18T23:41:31.037Z,101302.38
2023-05-18T23:46:35.400Z,101296.22
2023-05-18T23:51:39.575Z,101297.50
2023-05-18T23:56:42.875Z,101298.56
